Aeroporto :
LOGIN :

Iscrizione | Disclaimer

   EN    FR    IT 

 










Sommario :    VFR   VFR Marginale   IFR   IFR Intensivo   IFR Molto Intensivo
Visibilità : 
Base nubi : 
>= 8 km
>= 3000ft
5 / 8 km
1000 / 3000 ft
1500m / 5 km
500 / 1000 ft
800 / 1500m
200 / 500 ft
< 800m
< 200 ft
Simboli :   Temporali  Nebbia  Neve Forte  Precipitazioni Forti  Vento > 20 kt
SIGMETs :   Varie  Temporali  Ghiacco  Turbolenza  Onda orograficha  Ceneri Vulcaniche






- Altitudine del aeroporto : 245 ft
- Codice IATA : BIQ


LFBZ - Biarritz

ULTIMO METAR :
  • 151200Z AUTO 31011KT 280V350 9999 BKN024 BKN036 OVC052 21/15 Q1023 NOSIG

METARs OBSOLETI :
  • 151130Z AUTO 30012KT 9999 SCT024 SCT033 BKN039 20/15 Q1022 NOSIG
  • 151100Z AUTO 30013KT 9999 FEW023 BKN030 BKN042 20/15 Q1022 NOSIG
  • 151030Z AUTO 30011KT 9999 SCT024 BKN033 BKN049 20/15 Q1022 NOSIG
  • 151000Z AUTO 31011KT 9999 SCT024 BKN033 BKN041 20/15 Q1022 NOSIG
  • 150930Z AUTO 30010KT 270V330 9999 BKN021 BKN026 BKN031 19/15 Q1022 NOSIG

TAF TAF LFBZ
Valido dal 15 a 12 ore il 16 a 12 ore UTC


151100Z 1512/1612 30010KT 9999 SCT020 BKN040
BECMG 1512/1514 SCT050
BECMG 1522/1524 VRB03KT OVC020



MetMap, La meteo Aeronautica in un colpo d'occhio ! - Copyright ORBIFLY Dicembre 2007 - Disclaimer

ORBIFLY MET'MAP TEAM :

Programmazione e sviluppo : Alexandra Zaïnal
Concezione : Baudouin d'Aumeries
Aiuto per la programmazione : Marc-Olivier Méhu
Supporto tecnico e logistico : Manuel Goepfert
Aiuto per la traduzione : Arnaldo La Scala

Contatto : metmap@orbifly.com




FONTI E CREDITI :

   NOAA